Winslow Lindbergh Regional Airport
KINW : rendu visible

Aérodrome :











RETROUVEZ-NOUS SUR...

 
LOGIN :

S'inscrire | Disclaimer

   EN    FR    IT 

 









Légende :    VFR   VFR Marginal   IFR   IFR Intensif   IFR Très Intensif
Visi : 
Plafond : 
>= 8 km
>= 3000ft
5 à 8 km
1000 à 3000 ft
1500m à 5 km
500 à 1000 ft
800 à 1500m
200 à 500 ft
< 800m
< 200 ft
Symboles :   Orages  Brouillard  Fortes neiges  Fortes précipitations  Vent > 20 kt






- Altitude de l'aérodrome : 4941 ft


KINW - Winslow Lindbergh Regional

DERNIER METAR :
  • 022356Z AUTO 23022G27KT 10SM CLR 20/M07 A2985 RMK AO2 PK WND 24033/2326 SLP065 T02001067 10222 20200 53002

METARs EXPIRÉS :
  • 022256Z AUTO 23020G28KT 10SM CLR 21/M06 A2985 RMK AO2 PK WND 23032/2234 SLP059 T02111056
  • 022156Z AUTO 22024G35KT 10SM CLR 21/M04 A2984 RMK AO2 PK WND 22035/2155 SLP051 T02111044

TAF KINW
Valide du 03 à 00h jusqu'au 04 à 00h UTC


022346Z 0300/0324 22025G35KT P6SM SKC
FM030300 24014KT P6SM SKC
FM030600 25007KT P6SM SKC
FM031900 23010G20KT P6SM FEW090



MET'MAP, la Météo Aéronautique d'un coup d'oeil ! - Copyright ORBIFLY Décembre 2007 - Disclaimer

ORBIFLY MET'MAP TEAM :

Programmation & Développement : Alexandra Zaïnal
Sur une idée originale de : Baudouin d'Aumeries
Assistance à la programmation : Marc-Olivier Méhu
Soutien technique & logistique : Manuel Goepfert

Contact : metmap@orbifly.com




SOURCES & CREDITS :

   NOAA       Earth
Advisory